Time;durP1;ratioP1;P1;durP2;ratioP2;P2;SDS_P1;SDS_P2;PMS_P1;PMS_P2;Temp;Humidity;BMP_temperature;BMP_pressure;BME280_temperature;BME280_humidity;BME280_pressure;Samples;Min_cycle;Max_cycle;Signal;HPM_P1;HPM_P2
2023/01/21 00:01:42;;;;;;;47.45;29.73;;;;;;;2.22;67.58;102434.75;5049246;28;20136;-65
2023/01/21 00:04:07;;;;;;;44.10;28.27;;;;;;;2.24;68.27;102437.31;5053324;28;20036;-65
2023/01/21 00:06:34;;;;;;;40.47;28.00;;;;;;;2.24;68.06;102440.94;5050290;28;20029;-65
2023/01/21 00:09:00;;;;;;;43.80;28.40;;;;;;;2.22;68.03;102442.97;5053100;28;20395;-64
2023/01/21 00:11:25;;;;;;;43.50;27.05;;;;;;;2.22;68.01;102451.19;5052337;28;20039;-64
2023/01/21 00:13:50;;;;;;;45.25;29.13;;;;;;;2.18;67.81;102455.25;5050867;28;20129;-65
2023/01/21 00:16:15;;;;;;;43.50;27.65;;;;;;;2.15;68.06;102467.38;5040326;28;20460;-65
2023/01/21 00:18:41;;;;;;;46.42;27.70;;;;;;;2.08;67.81;102468.16;5052943;28;20033;-65
2023/01/21 00:21:06;;;;;;;45.28;29.23;;;;;;;2.08;68.57;102466.28;5051393;28;20045;-65
2023/01/21 00:23:32;;;;;;;42.92;28.77;;;;;;;2.07;68.48;102469.19;5052615;28;20044;-64
2023/01/21 00:26:02;;;;;;;43.90;28.00;;;;;;;2.09;68.35;102472.66;5050820;28;20078;-64
2023/01/21 00:28:29;;;;;;;48.65;30.08;;;;;;;2.07;68.73;102475.53;5052329;28;20033;-64
2023/01/21 00:31:00;;;;;;;43.58;28.33;;;;;;;2.03;68.13;102474.13;5048959;28;20082;-64
2023/01/21 00:33:26;;;;;;;43.20;28.75;;;;;;;2.03;68.28;102470.53;5042849;28;20028;-65
2023/01/21 00:36:04;;;;;;;50.25;29.35;;;;;;;2.03;68.84;102479.59;5050989;28;20017;-65
2023/01/21 00:38:30;;;;;;;46.33;28.67;;;;;;;1.99;68.49;102478.19;5049271;28;20049;-64
2023/01/21 00:41:04;;;;;;;44.88;28.67;;;;;;;1.98;68.02;102484.69;5051981;28;20025;-64
2023/01/21 00:43:29;;;;;;;43.25;28.55;;;;;;;1.96;68.70;102486.72;5051810;28;20392;-64
2023/01/21 00:45:55;;;;;;;50.78;31.17;;;;;;;1.99;68.35;102488.28;5048950;28;20039;-64
2023/01/21 00:48:21;;;;;;;45.63;28.65;;;;;;;1.94;67.85;102488.78;5051256;28;20040;-64
2023/01/21 00:50:46;;;;;;;48.58;29.60;;;;;;;1.98;68.05;102495.66;5041386;28;20075;-64
2023/01/21 00:53:11;;;;;;;43.88;28.92;;;;;;;1.97;67.82;102491.19;5039439;28;20434;-64
2023/01/21 00:55:36;;;;;;;45.60;30.60;;;;;;;1.95;68.19;102505.03;5051598;28;20079;-64
2023/01/21 00:58:02;;;;;;;44.80;29.23;;;;;;;1.95;67.64;102515.13;5052015;28;20487;-64
2023/01/21 01:00:27;;;;;;;48.35;29.75;;;;;;;1.96;68.62;102523.22;5041466;28;20025;-65
2023/01/21 01:02:52;;;;;;;48.25;29.67;;;;;;;1.96;67.68;102523.22;5050016;28;20083;-65
2023/01/21 01:05:18;;;;;;;47.33;29.83;;;;;;;1.93;67.74;102523.50;5049004;28;20024;-65
2023/01/21 01:07:46;;;;;;;44.53;29.30;;;;;;;1.95;67.78;102529.69;5033079;28;20100;-65
2023/01/21 01:10:11;;;;;;;48.08;29.90;;;;;;;1.95;68.36;102537.03;5051656;28;20029;-65
2023/01/21 01:12:37;;;;;;;44.25;30.30;;;;;;;1.92;67.97;102535.47;5051290;28;20082;-65
2023/01/21 01:15:02;;;;;;;50.30;31.25;;;;;;;1.94;68.27;102540.81;5049418;28;20029;-65
2023/01/21 01:17:28;;;;;;;46.63;30.77;;;;;;;1.91;68.34;102544.69;5043278;28;20499;-65
2023/01/21 01:19:53;;;;;;;47.97;30.25;;;;;;;1.90;67.79;102551.19;5050608;28;20024;-65
2023/01/21 01:22:18;;;;;;;49.95;30.45;;;;;;;1.90;67.83;102555.81;5051702;28;20465;-65
2023/01/21 01:24:43;;;;;;;48.72;31.60;;;;;;;1.91;67.76;102565.75;5049477;28;20035;-65
2023/01/21 01:27:09;;;;;;;51.17;32.13;;;;;;;1.88;67.76;102575.13;5049386;28;20028;-65
2023/01/21 01:29:34;;;;;;;50.92;30.05;;;;;;;1.91;68.48;102576.69;5049691;28;20559;-65
2023/01/21 01:31:59;;;;;;;48.88;31.38;;;;;;;1.91;68.16;102583.03;5048745;28;20035;-65
2023/01/21 01:34:24;;;;;;;51.92;32.50;;;;;;;1.90;68.00;102585.94;5043392;28;20028;-65
2023/01/21 01:36:50;;;;;;;49.47;32.38;;;;;;;1.91;68.20;102585.78;5050913;28;20032;-65
2023/01/21 01:39:15;;;;;;;50.90;32.25;;;;;;;1.85;68.15;102591.03;5049581;28;20114;-65
2023/01/21 01:41:40;;;;;;;55.25;33.50;;;;;;;1.85;68.04;102601.97;5049979;28;20111;-65
2023/01/21 01:44:44;;;;;;;52.03;33.10;;;;;;;1.86;67.89;102607.28;5050192;28;20041;-65
2023/01/21 01:47:09;;;;;;;52.80;32.97;;;;;;;1.82;68.61;102611.34;5042916;28;20029;-65
2023/01/21 01:49:35;;;;;;;53.80;33.83;;;;;;;1.81;68.06;102616.94;5047915;28;20037;-65
2023/01/21 01:52:03;;;;;;;49.35;32.38;;;;;;;1.79;68.38;102617.13;5045078;28;20067;-65
2023/01/21 01:54:33;;;;;;;51.80;33.53;;;;;;;1.75;68.33;102615.69;5050804;28;20029;-65
2023/01/21 01:57:01;;;;;;;54.03;33.50;;;;;;;1.75;67.74;102623.91;5050310;28;20044;-65
2023/01/21 01:59:29;;;;;;;55.78;33.97;;;;;;;1.76;68.57;102625.63;5049674;28;20044;-65
2023/01/21 02:01:57;;;;;;;52.33;33.50;;;;;;;1.74;68.43;102624.94;5048147;28;20025;-65
2023/01/21 02:04:28;;;;;;;55.03;35.38;;;;;;;1.75;68.34;102628.53;5047429;28;20145;-65
2023/01/21 02:06:56;;;;;;;55.17;35.13;;;;;;;1.75;68.01;102637.59;5040486;28;20162;-65
2023/01/21 02:09:22;;;;;;;59.63;37.20;;;;;;;1.75;67.93;102632.13;5048069;28;20063;-65
2023/01/21 02:11:48;;;;;;;53.88;34.15;;;;;;;1.72;67.99;102636.03;5048938;28;20090;-65
2023/01/21 02:14:13;;;;;;;57.67;36.00;;;;;;;1.72;68.44;102635.16;5048026;28;20322;-65
2023/01/21 02:16:50;;;;;;;58.67;35.60;;;;;;;1.72;68.40;102641.50;5049775;28;20025;-65
2023/01/21 02:19:21;;;;;;;59.47;36.95;;;;;;;1.71;68.83;102642.50;5047487;28;20060;-65
2023/01/21 02:22:07;;;;;;;61.10;36.60;;;;;;;1.69;68.54;102652.78;5047928;28;20717;-65
2023/01/21 02:24:56;;;;;;;61.20;37.03;;;;;;;1.76;68.21;102658.47;5038791;28;20473;-65
2023/01/21 02:27:45;;;;;;;64.47;39.72;;;;;;;1.77;68.77;102657.50;5047143;28;20194;-65
2023/01/21 02:30:29;;;;;;;64.15;38.33;;;;;;;1.76;68.64;102663.09;5046307;28;20037;-65
2023/01/21 02:33:09;;;;;;;60.05;38.17;;;;;;;1.75;68.81;102664.13;5029593;28;20037;-66
2023/01/21 02:35:53;;;;;;;61.00;38.88;;;;;;;1.74;68.46;102666.00;5028687;28;20032;-65
2023/01/21 02:38:30;;;;;;;56.65;37.35;;;;;;;1.68;68.90;102663.84;5038715;28;20041;-65
2023/01/21 02:41:20;;;;;;;66.60;39.28;;;;;;;1.71;68.57;102672.63;5046075;28;20032;-65
2023/01/21 02:44:04;;;;;;;65.32;39.75;;;;;;;1.66;68.81;102668.63;5047372;28;20124;-66
2023/01/21 02:46:43;;;;;;;68.30;41.30;;;;;;;1.63;68.87;102664.31;5037973;28;20107;-66
2023/01/21 02:49:18;;;;;;;67.38;41.38;;;;;;;1.62;68.45;102673.53;5049559;28;20033;-66
2023/01/21 02:51:47;;;;;;;67.78;42.78;;;;;;;1.59;68.70;102676.56;5049411;28;20032;-66
2023/01/21 02:54:15;;;;;;;66.47;40.25;;;;;;;1.60;68.37;102686.50;5050543;28;20079;-66
2023/01/21 02:56:43;;;;;;;68.07;41.67;;;;;;;1.58;68.17;102688.53;5048581;28;20033;-66
2023/01/21 02:59:09;;;;;;;68.07;42.53;;;;;;;1.58;68.86;102688.53;5043866;28;20021;-65
2023/01/21 03:01:40;;;;;;;68.65;43.05;;;;;;;1.59;68.31;102695.72;5050399;28;20036;-66
2023/01/21 03:05:03;;;;;;;69.65;41.60;;;;;;;1.66;69.06;102696.88;5047901;28;20119;-65
2023/01/21 03:07:33;;;;;;;62.88;40.30;;;;;;;1.58;68.23;102699.47;4988557;28;20045;-65
2023/01/21 03:10:11;;;;;;;65.45;41.72;;;;;;;1.59;68.70;102694.88;4988308;28;20068;-65
2023/01/21 03:12:49;;;;;;;65.38;40.97;;;;;;;1.58;68.93;102699.47;5024313;28;20124;-65
2023/01/21 03:18:17;;;;;;;68.57;40.67;;;;;;;1.57;68.53;102705.09;5031822;28;20056;-65
2023/01/21 03:20:48;;;;;;;64.28;40.72;;;;;;;1.50;68.17;102704.84;5048648;28;20025;-65
2023/01/21 03:23:19;;;;;;;67.47;41.03;;;;;;;1.48;68.32;102701.38;5047189;28;20491;-66
2023/01/21 03:25:46;;;;;;;65.65;41.22;;;;;;;1.44;69.02;102709.00;5046371;28;20166;-65
2023/01/21 03:28:17;;;;;;;62.63;38.85;;;;;;;1.44;68.47;102700.81;5044747;28;20473;-66
2023/01/21 03:30:46;;;;;;;65.93;39.63;;;;;;;1.45;68.34;102708.03;5050151;28;20118;-66
2023/01/21 03:33:15;;;;;;;65.45;39.53;;;;;;;1.46;68.91;102714.34;5041346;28;20389;-66
2023/01/21 03:35:44;;;;;;;63.38;39.35;;;;;;;1.45;68.16;102710.75;5034130;28;20056;-66
2023/01/21 03:38:13;;;;;;;64.57;39.38;;;;;;;1.45;68.31;102718.06;5042258;28;20041;-65
2023/01/21 03:40:46;;;;;;;61.33;38.75;;;;;;;1.46;68.29;102719.81;5051782;28;20156;-66
2023/01/21 03:43:12;;;;;;;58.83;36.92;;;;;;;1.47;68.41;102724.28;5051971;28;20115;-65
2023/01/21 03:45:56;;;;;;;60.30;37.70;;;;;;;1.46;68.99;102728.03;5051722;28;20179;-66
2023/01/21 03:48:30;;;;;;;64.25;37.85;;;;;;;1.45;68.65;102735.38;5047629;28;20052;-66
2023/01/21 03:51:01;;;;;;;66.35;37.72;;;;;;;1.42;68.32;102730.19;5042430;28;20029;-66
2023/01/21 03:53:26;;;;;;;56.83;35.28;;;;;;;1.42;68.87;102734.81;5050070;28;20123;-65
2023/01/21 03:55:52;;;;;;;61.17;36.33;;;;;;;1.43;68.95;102744.75;5052745;28;20080;-65
2023/01/21 03:58:17;;;;;;;57.30;35.03;;;;;;;1.41;68.08;102742.13;5053057;28;20032;-65
2023/01/21 04:00:43;;;;;;;58.10;35.10;;;;;;;1.41;68.32;102746.75;5050724;28;20040;-66
2023/01/21 04:03:09;;;;;;;59.53;35.83;;;;;;;1.39;68.69;102748.78;5052955;28;20581;-65
2023/01/21 04:05:34;;;;;;;59.58;36.30;;;;;;;1.39;68.57;102743.31;5052879;28;20107;-66
2023/01/21 04:08:00;;;;;;;53.85;34.28;;;;;;;1.39;68.97;102746.91;5041241;28;20018;-65
2023/01/21 04:10:25;;;;;;;58.35;35.92;;;;;;;1.40;68.08;102751.34;5049728;28;20550;-65
2023/01/21 04:12:50;;;;;;;59.00;34.97;;;;;;;1.39;68.50;102748.78;5051115;28;20044;-66
2023/01/21 04:15:16;;;;;;;57.53;34.63;;;;;;;1.36;68.26;102749.94;5050703;28;20028;-65
2023/01/21 04:17:41;;;;;;;54.92;34.08;;;;;;;1.35;68.85;102748.22;5052738;28;20033;-65
2023/01/21 04:20:07;;;;;;;57.22;34.55;;;;;;;1.37;68.14;102757.13;5052609;28;20399;-65
2023/01/21 04:22:32;;;;;;;58.22;34.50;;;;;;;1.31;68.55;102759.59;5050141;28;20674;-65
2023/01/21 04:24:57;;;;;;;59.97;34.30;;;;;;;1.35;68.54;102766.50;5042947;28;20035;-65
2023/01/21 04:27:23;;;;;;;57.03;33.60;;;;;;;1.33;68.70;102766.63;5052141;28;20036;-65
2023/01/21 04:29:48;;;;;;;56.97;34.28;;;;;;;1.31;69.12;102768.66;5050603;28;20039;-66
2023/01/21 04:32:14;;;;;;;53.25;33.55;;;;;;;1.28;68.15;102766.22;5051327;28;20380;-66
2023/01/21 04:34:39;;;;;;;58.50;34.78;;;;;;;1.29;68.52;102770.66;5048431;28;20134;-65
2023/01/21 04:37:05;;;;;;;54.72;33.03;;;;;;;1.26;68.50;102762.78;5051945;28;20025;-65
2023/01/21 04:39:30;;;;;;;54.55;32.75;;;;;;;1.29;68.86;102765.19;5045736;28;20481;-65
2023/01/21 04:41:55;;;;;;;54.25;32.55;;;;;;;1.28;68.08;102770.81;5033309;28;20807;-65
2023/01/21 04:44:20;;;;;;;54.03;32.42;;;;;;;1.26;68.64;102764.63;5042908;28;20040;-65
2023/01/21 04:46:46;;;;;;;56.42;34.30;;;;;;;1.26;68.88;102770.09;5052377;28;20040;-65
2023/01/21 04:49:11;;;;;;;55.17;33.28;;;;;;;1.26;68.29;102768.25;5050046;28;20029;-65
2023/01/21 04:51:36;;;;;;;52.58;32.17;;;;;;;1.27;68.45;102778.16;5049972;28;20033;-65
2023/01/21 04:54:02;;;;;;;55.10;30.95;;;;;;;1.25;69.01;102779.31;5050766;28;20025;-65
2023/01/21 04:56:27;;;;;;;56.33;33.05;;;;;;;1.28;68.95;102787.22;5046112;28;20033;-65
2023/01/21 04:58:52;;;;;;;55.83;32.50;;;;;;;1.26;69.16;102787.41;5031783;28;20120;-65
2023/01/21 05:01:17;;;;;;;56.97;33.25;;;;;;;1.21;68.29;102785.06;5048619;28;20056;-65
2023/01/21 05:03:43;;;;;;;54.03;32.90;;;;;;;1.21;68.45;102790.53;5050014;28;20033;-65
2023/01/21 05:06:08;;;;;;;53.22;32.10;;;;;;;1.19;68.99;102795.31;5051981;28;20027;-65
2023/01/21 05:08:34;;;;;;;52.72;32.55;;;;;;;1.15;68.94;102798.47;5048237;28;20496;-65
2023/01/21 05:10:59;;;;;;;55.45;32.28;;;;;;;1.17;69.00;102805.50;5050066;28;20051;-65
2023/01/21 05:13:24;;;;;;;58.30;32.25;;;;;;;1.17;68.53;102799.19;5044262;28;20029;-65
2023/01/21 05:15:49;;;;;;;56.22;32.83;;;;;;;1.16;68.69;102812.00;5036794;28;20033;-65
2023/01/21 05:18:15;;;;;;;57.55;33.03;;;;;;;1.14;68.31;102810.41;5051261;28;20162;-65
2023/01/21 05:20:40;;;;;;;56.20;32.45;;;;;;;1.14;69.08;102808.56;5049776;28;20077;-65
2023/01/21 05:23:05;;;;;;;53.33;31.80;;;;;;;1.15;68.61;102806.69;5050391;28;20069;-65
2023/01/21 05:25:31;;;;;;;52.38;31.60;;;;;;;1.18;68.47;102807.25;5050196;28;20044;-65
2023/01/21 05:27:56;;;;;;;53.08;31.85;;;;;;;1.15;68.46;102813.00;5051461;28;20017;-65
2023/01/21 05:30:21;;;;;;;54.40;33.25;;;;;;;1.11;68.29;102817.03;5041234;28;20037;-65
2023/01/21 05:32:53;;;;;;;52.72;32.05;;;;;;;1.10;69.17;102819.91;5046189;28;20031;-65
2023/01/21 05:35:20;;;;;;;55.83;31.45;;;;;;;1.11;68.85;102822.50;5050015;28;20041;-65
2023/01/21 05:37:46;;;;;;;52.92;32.35;;;;;;;1.09;69.13;102824.50;5041871;28;20047;-65
2023/01/21 05:40:13;;;;;;;54.80;32.15;;;;;;;1.06;68.64;102830.28;5050953;28;20031;-65
2023/01/21 05:42:38;;;;;;;51.40;31.52;;;;;;;1.07;69.19;102826.53;5049136;28;20649;-65
2023/01/21 05:45:04;;;;;;;53.25;31.75;;;;;;;1.01;68.51;102838.03;5044960;28;20043;-65
2023/01/21 05:47:30;;;;;;;53.17;32.67;;;;;;;1.04;68.79;102837.75;5033628;28;20095;-65
2023/01/21 05:49:55;;;;;;;57.60;33.13;;;;;;;1.00;69.17;102840.91;5036434;28;20025;-65
2023/01/21 05:52:20;;;;;;;56.22;32.35;;;;;;;1.01;69.30;102838.03;5031893;28;20025;-65
2023/01/21 05:54:45;;;;;;;56.35;32.45;;;;;;;1.02;69.13;102839.75;5028859;28;20040;-65
2023/01/21 05:57:11;;;;;;;54.47;32.05;;;;;;;1.03;68.57;102841.50;5041415;28;20501;-65
2023/01/21 05:59:36;;;;;;;52.13;31.52;;;;;;;1.05;69.45;102855.88;5045660;28;20043;-65
2023/01/21 06:02:01;;;;;;;53.17;31.08;;;;;;;1.04;68.94;102847.81;5036705;28;20029;-64
2023/01/21 06:04:29;;;;;;;54.35;31.20;;;;;;;1.05;69.37;102842.19;5039368;28;20029;-66
2023/01/21 06:06:55;;;;;;;53.33;31.88;;;;;;;1.04;68.72;102848.69;5046494;28;20037;-63
2023/01/21 06:09:20;;;;;;;55.90;32.80;;;;;;;0.98;68.62;102849.25;5051232;28;20039;-66
2023/01/21 06:11:45;;;;;;;48.65;29.65;;;;;;;1.02;68.60;102866.22;5049099;28;20032;-64
2023/01/21 06:14:11;;;;;;;57.53;31.05;;;;;;;1.00;69.08;102860.91;5048964;28;20385;-63
2023/01/21 06:16:36;;;;;;;54.58;32.85;;;;;;;0.99;68.90;102856.47;5048390;28;20036;-66
2023/01/21 06:19:02;;;;;;;57.38;33.58;;;;;;;0.93;69.22;102860.59;5047330;28;20072;-65
2023/01/21 06:21:27;;;;;;;55.67;33.22;;;;;;;0.97;69.42;102866.66;5042642;28;20095;-66
2023/01/21 06:23:52;;;;;;;52.85;30.27;;;;;;;0.98;68.54;102871.13;5049301;28;20033;-65
2023/01/21 06:26:18;;;;;;;57.17;32.53;;;;;;;0.98;68.58;102868.38;5051002;28;20023;-66
2023/01/21 06:28:43;;;;;;;54.28;31.98;;;;;;;0.96;68.72;102870.41;5050727;28;20561;-66
2023/01/21 06:31:08;;;;;;;50.58;31.70;;;;;;;0.97;68.90;102874.88;5047149;28;20099;-67
2023/01/21 06:33:33;;;;;;;57.90;32.90;;;;;;;0.99;68.76;102872.88;5050830;28;20064;-66
2023/01/21 06:35:59;;;;;;;59.88;33.58;;;;;;;0.93;68.71;102877.00;5037801;28;20032;-67
2023/01/21 06:38:24;;;;;;;56.90;32.05;;;;;;;0.91;68.59;102880.91;5030277;28;20038;-67
2023/01/21 06:40:49;;;;;;;56.17;32.47;;;;;;;0.89;68.46;102885.63;5042204;28;20797;-67
2023/01/21 06:43:14;;;;;;;55.25;32.22;;;;;;;0.86;67.95;102891.38;5032612;28;20041;-66
2023/01/21 06:45:40;;;;;;;51.88;31.08;;;;;;;0.82;67.60;102903.59;5043235;28;20545;-65
2023/01/21 06:48:05;;;;;;;55.75;31.90;;;;;;;0.81;68.20;102899.13;5030026;28;20036;-66
2023/01/21 06:50:31;;;;;;;55.53;31.65;;;;;;;0.77;67.62;102903.16;5044405;28;20083;-66
2023/01/21 06:52:56;;;;;;;53.67;31.88;;;;;;;0.73;68.05;102908.03;5048007;28;20556;-67
2023/01/21 06:55:21;;;;;;;53.08;31.05;;;;;;;0.71;67.69;102913.66;5048353;28;20582;-66
2023/01/21 06:57:47;;;;;;;52.53;30.80;;;;;;;0.68;67.77;102907.59;5049777;28;20033;-66
2023/01/21 07:00:13;;;;;;;56.00;31.83;;;;;;;0.65;67.87;102916.06;5049661;28;20102;-66
2023/01/21 07:02:38;;;;;;;57.47;31.60;;;;;;;0.64;67.86;102922.53;5048577;28;20028;-66
2023/01/21 07:05:04;;;;;;;57.08;34.05;;;;;;;0.66;68.52;102923.25;5036911;28;20037;-66
2023/01/21 07:07:29;;;;;;;61.53;33.85;;;;;;;0.69;68.51;102922.97;5037324;28;20433;-65
2023/01/21 07:09:54;;;;;;;57.35;32.70;;;;;;;0.67;68.68;102936.78;5053803;28;20424;-66
2023/01/21 07:12:20;;;;;;;55.50;32.22;;;;;;;0.73;69.15;102933.50;5054687;28;20174;-66
2023/01/21 07:14:45;;;;;;;58.25;32.50;;;;;;;0.69;69.10;102934.78;5054079;28;20031;-66
2023/01/21 07:17:10;;;;;;;53.42;31.90;;;;;;;0.75;69.37;102933.38;5053157;28;20025;-66
2023/01/21 07:19:36;;;;;;;56.85;32.30;;;;;;;0.73;68.95;102938.09;5054094;28;20031;-66
2023/01/21 07:22:01;;;;;;;55.67;31.63;;;;;;;0.76;68.67;102945.16;5044064;28;20037;-66
2023/01/21 07:24:27;;;;;;;57.33;31.70;;;;;;;0.75;68.65;102949.78;5051376;28;20499;-66
2023/01/21 07:26:52;;;;;;;57.63;33.30;;;;;;;0.71;69.21;102945.59;5053583;28;20041;-66
2023/01/21 07:29:18;;;;;;;58.20;33.03;;;;;;;0.74;69.07;102958.97;5053239;28;20031;-66
2023/01/21 07:31:43;;;;;;;61.17;33.63;;;;;;;0.72;68.60;102959.09;5048225;28;20040;-66
2023/01/21 07:34:08;;;;;;;60.63;33.20;;;;;;;0.73;68.91;102968.16;5051769;28;20025;-66
2023/01/21 07:36:34;;;;;;;60.40;32.47;;;;;;;0.72;69.32;102961.84;5051097;28;20123;-66
2023/01/21 07:38:59;;;;;;;56.92;32.90;;;;;;;0.73;69.36;102970.91;5052169;28;20047;-65
2023/01/21 07:41:25;;;;;;;57.83;33.45;;;;;;;0.67;68.86;102977.78;5052911;28;20051;-66
2023/01/21 07:43:51;;;;;;;59.60;33.50;;;;;;;0.66;68.89;102978.78;5053534;28;20523;-66
2023/01/21 07:46:18;;;;;;;60.28;33.45;;;;;;;0.68;68.61;102984.97;5047385;28;20033;-66
2023/01/21 07:48:43;;;;;;;56.63;32.13;;;;;;;0.72;69.43;102983.69;5053121;28;20029;-67
2023/01/21 07:51:08;;;;;;;57.70;32.50;;;;;;;0.73;69.33;102990.91;5053408;28;20029;-66
2023/01/21 07:53:34;;;;;;;59.15;33.70;;;;;;;0.73;69.10;102990.03;5035947;28;20125;-66
2023/01/21 07:56:06;;;;;;;57.13;32.92;;;;;;;0.73;69.38;102996.38;5033595;28;20056;-66
2023/01/21 07:58:32;;;;;;;58.05;33.10;;;;;;;0.73;69.24;103000.97;5033575;28;20060;-67
2023/01/21 08:00:58;;;;;;;55.58;33.22;;;;;;;0.72;68.73;103012.91;5034155;28;20037;-66
2023/01/21 08:03:24;;;;;;;62.88;34.58;;;;;;;0.76;69.65;103013.50;5039791;28;20029;-66
2023/01/21 08:05:53;;;;;;;61.75;34.88;;;;;;;0.72;69.38;103019.25;5052501;28;20480;-67
2023/01/21 08:08:18;;;;;;;57.03;33.08;;;;;;;0.75;69.56;103031.78;5051985;28;20079;-66
2023/01/21 08:10:49;;;;;;;62.50;35.00;;;;;;;0.80;69.04;103034.09;5033160;28;20025;-66
2023/01/21 08:13:14;;;;;;;61.45;33.20;;;;;;;0.78;69.53;103033.34;5033008;28;20091;-66
2023/01/21 08:15:39;;;;;;;62.25;36.45;;;;;;;0.77;69.28;103043.44;5033737;28;20026;-66
2023/01/21 08:18:05;;;;;;;65.63;34.75;;;;;;;0.78;69.91;103041.56;5039670;28;20127;-66
2023/01/21 08:20:30;;;;;;;61.25;33.90;;;;;;;0.77;70.41;103048.91;5036581;28;20033;-65
2023/01/21 08:22:59;;;;;;;64.82;35.70;;;;;;;0.80;70.04;103059.56;5050202;28;20049;-66
2023/01/21 08:25:24;;;;;;;65.32;36.40;;;;;;;0.80;70.47;103056.84;5031399;28;20037;-66
2023/01/21 08:27:50;;;;;;;67.78;37.10;;;;;;;0.96;75.02;103059.94;5032328;28;20032;-65
2023/01/21 08:30:15;;;;;;;67.22;36.35;;;;;;;1.10;70.63;103064.19;5032466;28;20113;-66
2023/01/21 08:32:40;;;;;;;68.75;36.85;;;;;;;1.07;70.84;103072.66;5032975;28;20033;-65
2023/01/21 08:35:06;;;;;;;67.68;36.67;;;;;;;1.06;70.81;103070.94;5031982;28;20071;-65
2023/01/21 08:37:32;;;;;;;66.85;34.90;;;;;;;1.03;70.46;103073.09;5037768;28;20041;-65
2023/01/21 08:39:57;;;;;;;72.05;37.20;;;;;;;1.01;70.81;103084.13;5047048;28;20071;-65
2023/01/21 08:42:22;;;;;;;68.90;37.42;;;;;;;1.01;70.79;103083.28;5052496;28;20029;-65
2023/01/21 08:44:49;;;;;;;70.90;37.80;;;;;;;1.00;70.65;103087.88;5052403;28;20028;-66
2023/01/21 08:47:15;;;;;;;73.00;37.88;;;;;;;0.95;71.26;103090.16;5039988;28;20547;-66
2023/01/21 08:49:40;;;;;;;67.35;35.97;;;;;;;0.89;70.93;103090.69;5050666;28;20099;-65
2023/01/21 08:52:05;;;;;;;70.10;37.28;;;;;;;0.85;71.25;103090.09;5052592;28;20021;-61
2023/01/21 08:54:31;;;;;;;70.72;37.95;;;;;;;0.85;71.96;103097.44;5047182;28;20468;-61
2023/01/21 08:56:56;;;;;;;69.85;36.85;;;;;;;0.86;71.44;103096.44;5050633;28;20033;-61
2023/01/21 08:59:27;;;;;;;68.20;36.95;;;;;;;0.90;72.34;103103.34;5051015;28;20492;-66
2023/01/21 09:01:55;;;;;;;70.05;37.17;;;;;;;0.93;71.56;103103.09;5045680;28;20028;-66
2023/01/21 09:04:22;;;;;;;70.60;39.08;;;;;;;0.94;72.00;103108.44;5042659;28;20095;-66
2023/01/21 09:06:48;;;;;;;73.88;39.45;;;;;;;0.96;71.84;103105.56;5038450;28;20100;-66
2023/01/21 09:09:13;;;;;;;69.60;38.25;;;;;;;0.96;71.67;103113.75;5028727;28;20040;-66
2023/01/21 09:11:38;;;;;;;74.25;39.00;;;;;;;0.98;71.61;103120.84;5030920;28;20035;-66
2023/01/21 09:14:03;;;;;;;71.13;36.42;;;;;;;0.97;71.49;103116.34;5032651;28;20570;-66
2023/01/21 09:16:32;;;;;;;68.72;35.35;;;;;;;0.93;72.18;103122.22;5028048;28;20030;-66
2023/01/21 09:19:01;;;;;;;67.55;35.45;;;;;;;0.95;72.33;103122.97;5028871;28;20036;-66
2023/01/21 09:21:26;;;;;;;67.55;36.55;;;;;;;0.98;72.46;103117.22;5028253;28;20052;-66
2023/01/21 09:23:51;;;;;;;68.50;37.40;;;;;;;0.99;72.37;103127.19;5034786;28;20032;-66
2023/01/21 09:26:26;;;;;;;72.13;37.55;;;;;;;1.01;72.06;103122.44;5040780;28;20405;-66
2023/01/21 09:28:54;;;;;;;70.85;34.80;;;;;;;0.99;72.32;103118.97;5029642;28;20026;-67
2023/01/21 09:31:20;;;;;;;72.38;37.40;;;;;;;1.00;72.29;103117.09;5040520;28;20033;-66
2023/01/21 09:33:49;;;;;;;67.63;35.17;;;;;;;0.95;72.02;103123.84;5051001;28;20496;-66
2023/01/21 09:36:18;;;;;;;68.97;35.72;;;;;;;0.94;72.48;103133.06;5051005;28;20452;-66
2023/01/21 09:38:44;;;;;;;70.70;35.92;;;;;;;0.98;72.75;103144.56;5046587;28;20048;-66
2023/01/21 09:41:29;;;;;;;68.20;35.58;;;;;;;1.01;72.92;103137.97;5036512;28;20400;-66
2023/01/21 09:44:04;;;;;;;72.00;35.90;;;;;;;0.96;72.89;103141.97;5047623;28;20032;-66
2023/01/21 09:46:36;;;;;;;71.95;36.50;;;;;;;1.00;72.12;103148.03;5048950;28;20047;-66
2023/01/21 09:49:04;;;;;;;69.13;36.20;;;;;;;1.05;72.27;103156.72;5039693;28;20033;-66
2023/01/21 09:51:50;;;;;;;74.20;35.15;;;;;;;1.09;72.60;103162.78;5032978;28;20058;-67
2023/01/21 09:54:26;;;;;;;68.72;34.78;;;;;;;1.05;72.39;103167.66;5048073;28;20079;-67
2023/01/21 09:57:21;;;;;;;69.95;35.70;;;;;;;1.09;72.36;103157.31;5050133;28;20024;-67
2023/01/21 09:59:46;;;;;;;72.30;35.38;;;;;;;1.09;72.32;103171.84;5047183;28;20021;-67
2023/01/21 10:02:26;;;;;;;76.25;36.55;;;;;;;1.11;72.37;103171.72;5047867;28;20086;-67
2023/01/21 10:05:11;;;;;;;76.50;36.65;;;;;;;1.11;72.79;103177.19;5049120;28;20047;-67
2023/01/21 10:07:44;;;;;;;74.82;36.60;;;;;;;1.12;72.59;103182.53;5040374;28;20042;-64
2023/01/21 10:10:32;;;;;;;73.40;36.67;;;;;;;1.18;72.21;103186.63;5030224;28;20355;-65
2023/01/21 10:13:36;;;;;;;72.07;35.20;;;;;;;1.15;72.44;103198.69;5038306;28;20045;-65
2023/01/21 10:16:38;;;;;;;69.25;34.92;;;;;;;1.13;72.82;103203.41;5047968;28;20597;-64
2023/01/21 10:19:06;;;;;;;71.30;34.47;;;;;;;1.10;72.13;103200.97;5049904;28;20511;-65
2023/01/21 10:21:40;;;;;;;73.35;35.90;;;;;;;1.09;72.50;103201.06;5049368;28;20036;-65
2023/01/21 10:24:14;;;;;;;73.93;36.78;;;;;;;1.10;72.75;103209.16;5033002;28;20458;-65
2023/01/21 10:26:42;;;;;;;75.45;35.17;;;;;;;1.09;72.92;103204.66;5045866;28;20041;-66
2023/01/21 10:29:15;;;;;;;77.05;36.80;;;;;;;1.11;73.39;103201.81;5049764;28;20032;-66
2023/01/21 10:31:43;;;;;;;76.70;37.42;;;;;;;1.12;73.25;103206.28;5049034;28;20399;-66
2023/01/21 10:34:16;;;;;;;72.93;35.45;;;;;;;1.15;73.35;103209.63;5049147;28;20029;-66
2023/01/21 10:37:00;;;;;;;;;;;;;;;1.51;74.46;103195.56;5047953;28;20036;-66
2023/01/21 10:39:33;;;;;;;77.43;36.08;;;;;;;1.52;73.08;103198.16;5049348;28;20281;-67
2023/01/21 10:42:25;;;;;;;76.90;35.85;;;;;;;1.51;72.28;103190.97;5040116;28;20024;-68
2023/01/21 10:45:18;;;;;;;74.47;36.17;;;;;;;1.53;72.50;103183.47;5046313;28;20475;-67
2023/01/21 10:48:01;;;;;;;77.93;36.03;;;;;;;1.50;72.27;103191.13;5049161;28;20388;-67
2023/01/21 10:50:53;;;;;;;77.15;35.78;;;;;;;1.47;72.71;103190.38;5048625;28;20025;-66
2023/01/21 10:53:28;;;;;;;79.53;37.57;;;;;;;1.48;72.20;103175.69;5049656;28;20021;-67
2023/01/21 10:56:17;;;;;;;80.93;36.70;;;;;;;1.51;72.69;103174.53;5045794;28;20782;-66
2023/01/21 10:59:07;;;;;;;72.70;35.60;;;;;;;1.51;72.43;103173.69;5044382;28;20090;-67
2023/01/21 11:01:36;;;;;;;70.70;34.72;;;;;;;1.55;73.34;103164.19;5041944;28;20033;-66
2023/01/21 11:04:14;;;;;;;77.05;35.78;;;;;;;1.66;72.23;103164.97;5041071;28;20032;-63
2023/01/21 11:06:41;;;;;;;78.43;36.20;;;;;;;1.71;72.49;103176.34;5044740;28;20125;-68
2023/01/21 11:09:13;;;;;;;77.47;36.60;;;;;;;1.81;72.14;103175.50;5046798;28;20104;-67
2023/01/21 11:11:40;;;;;;;74.97;37.33;;;;;;;1.90;72.53;103177.44;5048672;28;20036;-67
2023/01/21 11:14:06;;;;;;;79.90;37.65;;;;;;;1.94;71.61;103171.53;5046866;28;20364;-69
2023/01/21 11:16:48;;;;;;;78.20;38.33;;;;;;;2.07;72.31;103168.53;5041059;28;20036;-66
2023/01/21 11:19:25;;;;;;;81.93;38.08;;;;;;;2.17;71.65;103166.69;5039175;28;20110;-68
2023/01/21 11:22:16;;;;;;;83.18;41.08;;;;;;;2.28;71.26;103173.94;5041688;28;20175;-71
2023/01/21 11:24:42;;;;;;;82.18;38.85;;;;;;;2.37;71.41;103172.22;5033858;28;20528;-69
2023/01/21 11:27:19;;;;;;;79.28;38.63;;;;;;;2.45;70.77;103169.63;5029029;28;20835;-70
2023/01/21 11:29:47;;;;;;;76.90;38.67;;;;;;;2.50;70.66;103170.06;5043389;28;20100;-70